Terminal Aerodrome Forecast
Issued by NWS Tulsa, OK

Home | Current Version | Previous Version | Text Only | Print | Product List | Glossary On
Versions: 1 2 3 4 5 6 7 8 9 10 11 12 13
121
FTUS44 KTSA 111720
TAFFSM
TAF
KFSM 111720Z 1118/1218 07005KT P6SM FEW250
     FM121600 32007KT P6SM SCT250=

USA.gov is the U.S. government's official web portal to all federal, state and local government web resources and services.